Accueil
METAR-TAF:

METAR-TAF

Aéroports :

Base aérienne 105 Évreux-Fauville

Évreux, France

latitude: 49-01N, longitude: 001-13E, altitude: 141 m

Observation

Le bulletin a été fait il y a 31 minutes, à 02:30 UTC
Vent 4 kt de nord, variant entre nord-ouest et nord/nord-est
Température 15°C
Humidité 94%
Pression 1018 hPa
Visibilité 10 km ou plus
Ciel couvert à une hauteur de 4200 ft

METAR: LFOE 170230Z AUTO 35004KT 310V020 9999 OVC042 15/14 Q1018 BECMG BKN010

Heure: 05:01 (03:01 UTC)

Prévision

Le bulletin a été fait il y a 1 heure et 1 minutes, à 02:00 UTC
Prévision valable du 17 à 03 UTC au 18 à 03 UTC
Vent 5 kt de nord/nord-ouest
Visibilité 10 km ou plus
Nuages fragmentés à une hauteur de 1000 ft
Evoluant progressivement
du 17 à 06 UTC au 17 à 08 UTC
Nuages épars à une hauteur de 3000 ft

TAF: LFOE 170200Z 1703/1803 33005KT 9999 BKN010 BECMG 1706/1708 SCT030

Observations et prévisions météorologiques de plus de 4000 aéroports (messages METAR et TAF).

Les stations disponibles sont représentées par des disques jaunes et rouges sur la carte.

Passer la souris dessus pour voir le nom de la station.

Cliquer dessus pour voir les observations et prévisions météorologiques.

Pour changer de carte: cliquez sur les boutons verts avec une croix noire pour zoomer, sur le bouton vert avec un tiret pour effectuer un zoom arrière, ou sur les flèches vertes pour les cartes adjacentes.


METAR-TAF: